sensor_id;sensor_type;location;lat;lon;timestamp;pressure;altitude;pressure_sealevel;temperature;humidity
10366;BME280;5229;41.820;23.490;2022-12-10T00:02:10;89633.28;;;11.58;68.46
10366;BME280;5229;41.820;23.490;2022-12-10T00:04:37;89617.69;;;11.58;68.12
10366;BME280;5229;41.820;23.490;2022-12-10T00:07:04;89630.34;;;11.60;68.68
10366;BME280;5229;41.820;23.490;2022-12-10T00:09:30;89628.09;;;11.58;68.99
10366;BME280;5229;41.820;23.490;2022-12-10T00:11:58;89613.56;;;11.57;68.09
10366;BME280;5229;41.820;23.490;2022-12-10T00:14:24;89620.44;;;11.62;69.14
10366;BME280;5229;41.820;23.490;2022-12-10T00:16:53;89625.41;;;11.67;68.75
10366;BME280;5229;41.820;23.490;2022-12-10T00:19:19;89626.34;;;11.71;68.96
10366;BME280;5229;41.820;23.490;2022-12-10T00:21:46;89625.03;;;11.77;68.56
10366;BME280;5229;41.820;23.490;2022-12-10T00:24:13;89636.44;;;11.84;68.77
10366;BME280;5229;41.820;23.490;2022-12-10T00:26:40;89627.25;;;11.87;68.87
10366;BME280;5229;41.820;23.490;2022-12-10T00:29:09;89622.19;;;11.91;68.49
10366;BME280;5229;41.820;23.490;2022-12-10T00:31:37;89632.56;;;11.91;68.66
10366;BME280;5229;41.820;23.490;2022-12-10T00:34:09;89632.25;;;11.92;68.60
10366;BME280;5229;41.820;23.490;2022-12-10T00:36:39;89636.69;;;11.92;68.51
10366;BME280;5229;41.820;23.490;2022-12-10T00:39:07;89639.91;;;11.88;69.08
10366;BME280;5229;41.820;23.490;2022-12-10T00:41:35;89627.44;;;11.82;69.31
10366;BME280;5229;41.820;23.490;2022-12-10T00:44:02;89630.06;;;11.82;69.30
10366;BME280;5229;41.820;23.490;2022-12-10T00:46:29;89622.56;;;11.80;68.97
10366;BME280;5229;41.820;23.490;2022-12-10T00:48:57;89625.59;;;11.82;69.93
10366;BME280;5229;41.820;23.490;2022-12-10T00:51:26;89619.34;;;11.83;69.05
10366;BME280;5229;41.820;23.490;2022-12-10T00:53:55;89608.94;;;11.83;69.45
10366;BME280;5229;41.820;23.490;2022-12-10T00:56:24;89602.03;;;11.88;69.58
10366;BME280;5229;41.820;23.490;2022-12-10T00:58:52;89594.25;;;11.88;69.72
10366;BME280;5229;41.820;23.490;2022-12-10T01:01:20;89602.03;;;11.88;69.53
10366;BME280;5229;41.820;23.490;2022-12-10T01:03:49;89596.06;;;11.87;69.24
10366;BME280;5229;41.820;23.490;2022-12-10T01:06:18;89604.00;;;11.91;69.11
10366;BME280;5229;41.820;23.490;2022-12-10T01:08:47;89610.81;;;11.95;69.35
10366;BME280;5229;41.820;23.490;2022-12-10T01:11:16;89616.13;;;11.99;68.96
10366;BME280;5229;41.820;23.490;2022-12-10T01:13:44;89603.56;;;12.01;68.65
10366;BME280;5229;41.820;23.490;2022-12-10T01:16:13;89597.94;;;11.99;68.59
10366;BME280;5229;41.820;23.490;2022-12-10T01:18:40;89606.06;;;11.97;68.95
10366;BME280;5229;41.820;23.490;2022-12-10T01:21:09;89610.16;;;11.98;69.38
10366;BME280;5229;41.820;23.490;2022-12-10T01:23:38;89601.81;;;11.93;69.36
10366;BME280;5229;41.820;23.490;2022-12-10T01:26:09;89596.19;;;11.91;69.71
10366;BME280;5229;41.820;23.490;2022-12-10T01:28:37;89601.72;;;11.89;70.20
10366;BME280;5229;41.820;23.490;2022-12-10T01:31:08;89599.44;;;11.88;69.53
10366;BME280;5229;41.820;23.490;2022-12-10T01:33:37;89594.66;;;11.89;69.61
10366;BME280;5229;41.820;23.490;2022-12-10T01:36:05;89598.91;;;11.94;68.97
10366;BME280;5229;41.820;23.490;2022-12-10T01:38:32;89588.19;;;11.96;68.81
10366;BME280;5229;41.820;23.490;2022-12-10T01:40:59;89587.22;;;12.00;69.07
10366;BME280;5229;41.820;23.490;2022-12-10T01:43:47;89584.75;;;12.04;68.99
10366;BME280;5229;41.820;23.490;2022-12-10T01:46:14;89576.84;;;12.00;69.19
10366;BME280;5229;41.820;23.490;2022-12-10T01:48:41;89574.44;;;11.95;69.78
10366;BME280;5229;41.820;23.490;2022-12-10T01:51:09;89560.25;;;11.93;69.60
10366;BME280;5229;41.820;23.490;2022-12-10T01:53:36;89554.19;;;11.88;69.63
10366;BME280;5229;41.820;23.490;2022-12-10T01:56:03;89554.41;;;11.83;69.09
10366;BME280;5229;41.820;23.490;2022-12-10T01:58:31;89556.69;;;11.85;69.88
10366;BME280;5229;41.820;23.490;2022-12-10T02:01:04;89559.69;;;11.87;69.30
10366;BME280;5229;41.820;23.490;2022-12-10T02:03:38;89564.56;;;11.88;70.19
10366;BME280;5229;41.820;23.490;2022-12-10T02:06:22;89572.81;;;11.91;69.90
10366;BME280;5229;41.820;23.490;2022-12-10T02:09:00;89577.34;;;11.93;69.69
10366;BME280;5229;41.820;23.490;2022-12-10T02:11:33;89578.25;;;11.98;69.13
10366;BME280;5229;41.820;23.490;2022-12-10T02:14:10;89568.19;;;11.96;69.37
10366;BME280;5229;41.820;23.490;2022-12-10T02:16:41;89570.78;;;11.96;69.55
10366;BME280;5229;41.820;23.490;2022-12-10T02:19:17;89569.78;;;11.88;69.52
10366;BME280;5229;41.820;23.490;2022-12-10T02:21:47;89564.78;;;11.83;69.64
10366;BME280;5229;41.820;23.490;2022-12-10T02:24:20;89566.16;;;11.81;69.57
10366;BME280;5229;41.820;23.490;2022-12-10T02:26:54;89566.16;;;11.81;69.70
10366;BME280;5229;41.820;23.490;2022-12-10T02:29:26;89560.66;;;11.82;69.22
10366;BME280;5229;41.820;23.490;2022-12-10T02:31:56;89564.78;;;11.83;69.66
10366;BME280;5229;41.820;23.490;2022-12-10T02:34:25;89555.47;;;11.82;69.35
10366;BME280;5229;41.820;23.490;2022-12-10T02:36:57;89549.84;;;11.80;69.93
10366;BME280;5229;41.820;23.490;2022-12-10T02:39:32;89543.44;;;11.78;69.72
10366;BME280;5229;41.820;23.490;2022-12-10T02:42:02;89541.19;;;11.76;69.96
10366;BME280;5229;41.820;23.490;2022-12-10T02:44:33;89548.53;;;11.74;70.04
10366;BME280;5229;41.820;23.490;2022-12-10T02:47:03;89549.78;;;11.68;70.19
10366;BME280;5229;41.820;23.490;2022-12-10T02:49:32;89543.84;;;11.68;70.10
10366;BME280;5229;41.820;23.490;2022-12-10T02:52:06;89538.34;;;11.69;70.50
10366;BME280;5229;41.820;23.490;2022-12-10T02:54:38;89536.63;;;11.73;70.13
10366;BME280;5229;41.820;23.490;2022-12-10T02:57:26;89532.47;;;11.72;70.07
10366;BME280;5229;41.820;23.490;2022-12-10T03:00:06;89521.03;;;11.73;69.98
10366;BME280;5229;41.820;23.490;2022-12-10T03:02:40;89525.59;;;11.76;70.91
10366;BME280;5229;41.820;23.490;2022-12-10T03:05:15;89527.53;;;11.79;69.96
10366;BME280;5229;41.820;23.490;2022-12-10T03:07:47;89523.66;;;11.85;70.72
10366;BME280;5229;41.820;23.490;2022-12-10T03:10:21;89513.72;;;11.88;69.93
10366;BME280;5229;41.820;23.490;2022-12-10T03:12:55;89525.28;;;11.90;69.83
10366;BME280;5229;41.820;23.490;2022-12-10T03:15:27;89519.78;;;11.92;69.85
10366;BME280;5229;41.820;23.490;2022-12-10T03:17:54;89534.91;;;11.89;70.18
10366;BME280;5229;41.820;23.490;2022-12-10T03:20:23;89528.44;;;11.83;69.84
10366;BME280;5229;41.820;23.490;2022-12-10T03:22:51;89519.00;;;11.79;70.79
10366;BME280;5229;41.820;23.490;2022-12-10T03:25:21;89522.53;;;11.74;70.19
10366;BME280;5229;41.820;23.490;2022-12-10T03:27:51;89521.69;;;11.70;70.16
10366;BME280;5229;41.820;23.490;2022-12-10T03:30:20;89523.50;;;11.70;70.86
10366;BME280;5229;41.820;23.490;2022-12-10T03:32:49;89525.47;;;11.73;70.86
10366;BME280;5229;41.820;23.490;2022-12-10T03:35:17;89517.34;;;11.74;69.80
10366;BME280;5229;41.820;23.490;2022-12-10T03:37:45;89512.16;;;11.74;70.22
10366;BME280;5229;41.820;23.490;2022-12-10T03:40:15;89510.00;;;11.76;69.87
10366;BME280;5229;41.820;23.490;2022-12-10T03:42:44;89511.94;;;11.79;69.73
10366;BME280;5229;41.820;23.490;2022-12-10T03:45:11;89511.94;;;11.79;70.36
10366;BME280;5229;41.820;23.490;2022-12-10T03:47:39;89507.19;;;11.81;69.80
10366;BME280;5229;41.820;23.490;2022-12-10T03:50:08;89509.16;;;11.84;70.23
10366;BME280;5229;41.820;23.490;2022-12-10T03:52:35;89504.72;;;11.85;70.50
10366;BME280;5229;41.820;23.490;2022-12-10T03:55:02;89505.03;;;11.83;69.93
10366;BME280;5229;41.820;23.490;2022-12-10T03:57:29;89509.47;;;11.83;69.91
10366;BME280;5229;41.820;23.490;2022-12-10T03:59:56;89513.34;;;11.77;69.31
10366;BME280;5229;41.820;23.490;2022-12-10T04:02:23;89504.50;;;11.78;69.17
10366;BME280;5229;41.820;23.490;2022-12-10T04:04:50;89516.50;;;11.82;69.37
10366;BME280;5229;41.820;23.490;2022-12-10T04:07:18;89509.91;;;11.85;69.78
10366;BME280;5229;41.820;23.490;2022-12-10T04:09:45;89521.50;;;11.88;69.54
10366;BME280;5229;41.820;23.490;2022-12-10T04:12:11;89516.31;;;11.88;69.12
10366;BME280;5229;41.820;23.490;2022-12-10T04:14:38;89517.81;;;11.88;69.80
10366;BME280;5229;41.820;23.490;2022-12-10T04:17:23;89542.69;;;11.89;69.79
10366;BME280;5229;41.820;23.490;2022-12-10T04:19:49;89524.41;;;11.86;69.33
10366;BME280;5229;41.820;23.490;2022-12-10T04:22:17;89520.63;;;11.83;69.35
10366;BME280;5229;41.820;23.490;2022-12-10T04:25:02;89530.25;;;11.83;69.93
10366;BME280;5229;41.820;23.490;2022-12-10T04:27:46;89507.19;;;11.81;69.67
10366;BME280;5229;41.820;23.490;2022-12-10T04:30:13;89510.25;;;11.83;69.46
10366;BME280;5229;41.820;23.490;2022-12-10T04:32:39;89518.34;;;11.82;69.97
10366;BME280;5229;41.820;23.490;2022-12-10T04:35:07;89523.09;;;11.80;69.87
10366;BME280;5229;41.820;23.490;2022-12-10T04:37:36;89529.06;;;11.80;70.20
10366;BME280;5229;41.820;23.490;2022-12-10T04:40:04;89517.72;;;11.85;69.45
10366;BME280;5229;41.820;23.490;2022-12-10T04:42:30;89517.03;;;11.88;69.72
10366;BME280;5229;41.820;23.490;2022-12-10T04:44:57;89506.56;;;11.84;69.78
10366;BME280;5229;41.820;23.490;2022-12-10T04:47:24;89493.75;;;11.79;70.59
10366;BME280;5229;41.820;23.490;2022-12-10T04:49:51;89498.84;;;11.76;69.45
10366;BME280;5229;41.820;23.490;2022-12-10T04:52:18;89487.06;;;11.78;69.48
10366;BME280;5229;41.820;23.490;2022-12-10T04:54:46;89483.81;;;11.81;69.87
10366;BME280;5229;41.820;23.490;2022-12-10T04:57:13;89484.25;;;11.83;69.63
10366;BME280;5229;41.820;23.490;2022-12-10T04:59:40;89478.53;;;11.78;69.32
10366;BME280;5229;41.820;23.490;2022-12-10T05:02:07;89474.72;;;11.75;70.17
10366;BME280;5229;41.820;23.490;2022-12-10T05:04:34;89491.38;;;11.74;70.02
10366;BME280;5229;41.820;23.490;2022-12-10T05:07:01;89494.28;;;11.73;69.13
10366;BME280;5229;41.820;23.490;2022-12-10T05:09:28;89489.88;;;11.73;69.86
10366;BME280;5229;41.820;23.490;2022-12-10T05:11:56;89489.22;;;11.76;69.46
10366;BME280;5229;41.820;23.490;2022-12-10T05:14:24;89491.59;;;11.81;70.22
10366;BME280;5229;41.820;23.490;2022-12-10T05:16:51;89490.97;;;11.84;70.29
10366;BME280;5229;41.820;23.490;2022-12-10T05:19:18;89490.00;;;11.89;70.00
10366;BME280;5229;41.820;23.490;2022-12-10T05:21:47;89473.09;;;11.95;69.99
10366;BME280;5229;41.820;23.490;2022-12-10T05:24:31;89477.97;;;11.97;70.37
10366;BME280;5229;41.820;23.490;2022-12-10T05:27:00;89475.81;;;11.99;69.97
10366;BME280;5229;41.820;23.490;2022-12-10T05:29:26;89476.47;;;11.96;69.75
10366;BME280;5229;41.820;23.490;2022-12-10T05:31:53;89483.94;;;11.97;70.46
10366;BME280;5229;41.820;23.490;2022-12-10T05:34:20;89491.41;;;11.99;70.52
10366;BME280;5229;41.820;23.490;2022-12-10T05:36:47;89475.19;;;12.02;69.56
10366;BME280;5229;41.820;23.490;2022-12-10T05:39:14;89473.78;;;12.04;69.91
10366;BME280;5229;41.820;23.490;2022-12-10T05:41:41;89479.06;;;12.08;70.17
10366;BME280;5229;41.820;23.490;2022-12-10T05:44:10;89480.59;;;12.09;70.07
10366;BME280;5229;41.820;23.490;2022-12-10T05:46:37;89485.78;;;12.09;69.98
10366;BME280;5229;41.820;23.490;2022-12-10T05:49:06;89497.69;;;12.10;70.19
10366;BME280;5229;41.820;23.490;2022-12-10T05:51:35;89514.81;;;12.11;69.80
10366;BME280;5229;41.820;23.490;2022-12-10T05:54:03;89517.94;;;12.04;69.67
10366;BME280;5229;41.820;23.490;2022-12-10T05:56:30;89524.22;;;12.03;69.73
10366;BME280;5229;41.820;23.490;2022-12-10T05:59:01;89532.34;;;12.02;69.33
10366;BME280;5229;41.820;23.490;2022-12-10T06:01:31;89530.81;;;12.01;70.13
10366;BME280;5229;41.820;23.490;2022-12-10T06:03:59;89526.38;;;12.01;70.04
10366;BME280;5229;41.820;23.490;2022-12-10T06:06:28;89528.66;;;12.03;69.92
10366;BME280;5229;41.820;23.490;2022-12-10T06:08:56;89525.28;;;12.02;69.36
10366;BME280;5229;41.820;23.490;2022-12-10T06:11:23;89522.06;;;12.05;69.79
10366;BME280;5229;41.820;23.490;2022-12-10T06:13:51;89513.94;;;12.07;69.70
10366;BME280;5229;41.820;23.490;2022-12-10T06:16:20;89507.66;;;12.08;69.68
10366;BME280;5229;41.820;23.490;2022-12-10T06:18:48;89502.56;;;12.11;69.47
10366;BME280;5229;41.820;23.490;2022-12-10T06:21:16;89500.41;;;12.13;69.45
10366;BME280;5229;41.820;23.490;2022-12-10T06:23:43;89507.88;;;12.15;69.07
10366;BME280;5229;41.820;23.490;2022-12-10T06:26:12;89516.44;;;12.15;70.14
10366;BME280;5229;41.820;23.490;2022-12-10T06:28:39;89510.47;;;12.15;69.51
10366;BME280;5229;41.820;23.490;2022-12-10T06:31:06;89510.06;;;12.13;69.15
10366;BME280;5229;41.820;23.490;2022-12-10T06:33:34;89513.38;;;12.13;69.11
10366;BME280;5229;41.820;23.490;2022-12-10T06:36:05;89519.47;;;12.17;69.59
10366;BME280;5229;41.820;23.490;2022-12-10T06:38:32;89526.28;;;12.22;69.82
10366;BME280;5229;41.820;23.490;2022-12-10T06:40:59;89505.16;;;12.23;69.76
10366;BME280;5229;41.820;23.490;2022-12-10T06:43:28;89506.03;;;12.27;69.88
10366;BME280;5229;41.820;23.490;2022-12-10T06:45:55;89509.41;;;12.28;69.37
10366;BME280;5229;41.820;23.490;2022-12-10T06:48:22;89518.72;;;12.29;69.69
10366;BME280;5229;41.820;23.490;2022-12-10T06:50:49;89519.81;;;12.28;69.68
10366;BME280;5229;41.820;23.490;2022-12-10T06:53:18;89522.84;;;12.30;69.28
10366;BME280;5229;41.820;23.490;2022-12-10T06:55:45;89520.66;;;12.32;69.53
10366;BME280;5229;41.820;23.490;2022-12-10T06:58:11;89518.94;;;12.36;69.58
10366;BME280;5229;41.820;23.490;2022-12-10T07:00:38;89518.72;;;12.41;69.60
10366;BME280;5229;41.820;23.490;2022-12-10T07:03:05;89510.69;;;12.46;69.59
10366;BME280;5229;41.820;23.490;2022-12-10T07:05:32;89508.41;;;12.44;69.61
10366;BME280;5229;41.820;23.490;2022-12-10T07:07:59;89518.09;;;12.44;69.15
10366;BME280;5229;41.820;23.490;2022-12-10T07:10:27;89525.88;;;12.44;69.86
10366;BME280;5229;41.820;23.490;2022-12-10T07:12:53;89515.34;;;12.40;69.60
10366;BME280;5229;41.820;23.490;2022-12-10T07:15:20;89515.34;;;12.40;69.24
10366;BME280;5229;41.820;23.490;2022-12-10T07:17:50;89521.00;;;12.42;69.31
10366;BME280;5229;41.820;23.490;2022-12-10T07:20:17;89526.63;;;12.44;69.66
10366;BME280;5229;41.820;23.490;2022-12-10T07:22:44;89541.91;;;12.46;69.22
10366;BME280;5229;41.820;23.490;2022-12-10T07:25:11;89535.28;;;12.48;69.66
10366;BME280;5229;41.820;23.490;2022-12-10T07:27:39;89535.41;;;12.52;70.12
10366;BME280;5229;41.820;23.490;2022-12-10T07:30:06;89538.53;;;12.57;69.24
10366;BME280;5229;41.820;23.490;2022-12-10T07:32:33;89528.22;;;12.61;69.22
10366;BME280;5229;41.820;23.490;2022-12-10T07:35:00;89537.66;;;12.65;69.31
10366;BME280;5229;41.820;23.490;2022-12-10T07:37:27;89540.38;;;12.69;69.12
10366;BME280;5229;41.820;23.490;2022-12-10T07:39:54;89536.03;;;12.73;68.96
10366;BME280;5229;41.820;23.490;2022-12-10T07:42:21;89543.63;;;12.78;68.95
10366;BME280;5229;41.820;23.490;2022-12-10T07:44:49;89540.38;;;12.81;69.45
10366;BME280;5229;41.820;23.490;2022-12-10T07:47:16;89542.72;;;12.86;68.71
10366;BME280;5229;41.820;23.490;2022-12-10T07:49:43;89524.63;;;12.89;68.60
10366;BME280;5229;41.820;23.490;2022-12-10T07:52:09;89525.94;;;12.95;68.65
10366;BME280;5229;41.820;23.490;2022-12-10T07:54:36;89533.84;;;12.99;68.66
10366;BME280;5229;41.820;23.490;2022-12-10T07:57:03;89527.22;;;13.01;68.90
10366;BME280;5229;41.820;23.490;2022-12-10T07:59:30;89527.34;;;13.05;68.39
10366;BME280;5229;41.820;23.490;2022-12-10T08:02:00;89542.19;;;13.04;68.99
10366;BME280;5229;41.820;23.490;2022-12-10T08:04:28;89540.69;;;13.03;68.54
10366;BME280;5229;41.820;23.490;2022-12-10T08:06:55;89538.84;;;13.04;69.01
10366;BME280;5229;41.820;23.490;2022-12-10T08:09:22;89526.50;;;13.01;68.45
10366;BME280;5229;41.820;23.490;2022-12-10T08:11:49;89525.84;;;13.04;68.39
10366;BME280;5229;41.820;23.490;2022-12-10T08:14:16;89524.41;;;13.06;68.98
10366;BME280;5229;41.820;23.490;2022-12-10T08:16:42;89519.28;;;13.10;68.44
10366;BME280;5229;41.820;23.490;2022-12-10T08:19:11;89521.25;;;13.13;68.95
10366;BME280;5229;41.820;23.490;2022-12-10T08:21:38;89524.28;;;13.15;69.03
10366;BME280;5229;41.820;23.490;2022-12-10T08:24:05;89521.75;;;13.18;68.63
10366;BME280;5229;41.820;23.490;2022-12-10T08:26:32;89518.63;;;13.25;68.54
10366;BME280;5229;41.820;23.490;2022-12-10T08:29:00;89517.59;;;13.29;68.47
10366;BME280;5229;41.820;23.490;2022-12-10T08:31:27;89512.19;;;13.34;68.57
10366;BME280;5229;41.820;23.490;2022-12-10T08:33:55;89503.38;;;13.39;68.61
10366;BME280;5229;41.820;23.490;2022-12-10T08:36:23;89505.75;;;13.44;68.59
10366;BME280;5229;41.820;23.490;2022-12-10T08:38:50;89498.00;;;13.47;68.39
10366;BME280;5229;41.820;23.490;2022-12-10T08:41:18;89504.09;;;13.51;68.78
10366;BME280;5229;41.820;23.490;2022-12-10T08:43:46;89507.94;;;13.57;68.26
10366;BME280;5229;41.820;23.490;2022-12-10T08:46:14;89513.28;;;13.61;68.70
10366;BME280;5229;41.820;23.490;2022-12-10T08:48:41;89496.53;;;13.62;68.70
10366;BME280;5229;41.820;23.490;2022-12-10T08:51:09;89480.25;;;13.65;68.68
10366;BME280;5229;41.820;23.490;2022-12-10T08:53:38;89472.44;;;13.65;68.57
10366;BME280;5229;41.820;23.490;2022-12-10T08:56:05;89482.84;;;13.65;69.02
10366;BME280;5229;41.820;23.490;2022-12-10T08:58:32;89480.25;;;13.65;68.72
10366;BME280;5229;41.820;23.490;2022-12-10T09:00:59;89483.63;;;13.65;68.78
10366;BME280;5229;41.820;23.490;2022-12-10T09:03:27;89491.84;;;13.67;68.64
10366;BME280;5229;41.820;23.490;2022-12-10T09:05:53;89491.06;;;13.67;68.90
10366;BME280;5229;41.820;23.490;2022-12-10T09:08:20;89490.00;;;13.68;68.75
10366;BME280;5229;41.820;23.490;2022-12-10T09:10:48;89485.47;;;13.65;68.70
10366;BME280;5229;41.820;23.490;2022-12-10T09:13:15;89490.22;;;13.63;68.87
10366;BME280;5229;41.820;23.490;2022-12-10T09:15:49;89481.56;;;13.59;68.79
10366;BME280;5229;41.820;23.490;2022-12-10T09:18:16;89478.22;;;13.58;68.67
10366;BME280;5229;41.820;23.490;2022-12-10T09:20:43;89472.16;;;13.54;68.74
10366;BME280;5229;41.820;23.490;2022-12-10T09:23:10;89460.97;;;13.54;69.08
10366;BME280;5229;41.820;23.490;2022-12-10T09:25:37;89458.72;;;13.52;69.05
10366;BME280;5229;41.820;23.490;2022-12-10T09:28:05;89452.84;;;13.55;68.61
10366;BME280;5229;41.820;23.490;2022-12-10T09:30:31;89436.00;;;13.53;68.75
10366;BME280;5229;41.820;23.490;2022-12-10T09:32:58;89432.22;;;13.50;69.03
10366;BME280;5229;41.820;23.490;2022-12-10T09:35:25;89414.44;;;13.52;69.01
10366;BME280;5229;41.820;23.490;2022-12-10T09:37:52;89430.56;;;13.58;68.99
10366;BME280;5229;41.820;23.490;2022-12-10T09:40:24;89418.56;;;13.69;68.89
10366;BME280;5229;41.820;23.490;2022-12-10T09:43:00;89416.19;;;13.79;68.67
10366;BME280;5229;41.820;23.490;2022-12-10T09:45:39;89417.13;;;13.87;68.33
10366;BME280;5229;41.820;23.490;2022-12-10T09:48:16;89417.63;;;13.92;68.21
10366;BME280;5229;41.820;23.490;2022-12-10T09:50:50;89426.38;;;14.00;68.17
10366;BME280;5229;41.820;23.490;2022-12-10T09:53:20;89418.97;;;14.02;67.94
10366;BME280;5229;41.820;23.490;2022-12-10T09:55:49;89420.50;;;14.03;67.81
10366;BME280;5229;41.820;23.490;2022-12-10T09:58:19;89428.31;;;14.03;67.91
10366;BME280;5229;41.820;23.490;2022-12-10T10:00:50;89430.94;;;14.03;67.96
10366;BME280;5229;41.820;23.490;2022-12-10T10:03:18;89424.59;;;14.04;67.90
10366;BME280;5229;41.820;23.490;2022-12-10T10:05:47;89413.06;;;14.05;67.86
10366;BME280;5229;41.820;23.490;2022-12-10T10:08:22;89403.41;;;14.05;67.88
10366;BME280;5229;41.820;23.490;2022-12-10T10:10:50;89399.03;;;14.09;67.87
10366;BME280;5229;41.820;23.490;2022-12-10T10:13:27;89390.94;;;14.14;67.93
10366;BME280;5229;41.820;23.490;2022-12-10T10:16:09;89383.41;;;14.25;67.55
10366;BME280;5229;41.820;23.490;2022-12-10T10:18:45;89378.00;;;14.33;67.27
10366;BME280;5229;41.820;23.490;2022-12-10T10:21:16;89378.88;;;14.41;67.04
10366;BME280;5229;41.820;23.490;2022-12-10T10:23:45;89378.22;;;14.44;67.45
10366;BME280;5229;41.820;23.490;2022-12-10T10:26:11;89380.00;;;14.40;66.86
10366;BME280;5229;41.820;23.490;2022-12-10T10:28:39;89386.31;;;14.39;67.06
10366;BME280;5229;41.820;23.490;2022-12-10T10:31:16;89381.00;;;14.35;67.09
10366;BME280;5229;41.820;23.490;2022-12-10T10:33:48;89375.44;;;14.37;66.75
10366;BME280;5229;41.820;23.490;2022-12-10T10:36:16;89363.94;;;14.38;66.90
10366;BME280;5229;41.820;23.490;2022-12-10T10:38:47;89369.56;;;14.40;66.66
10366;BME280;5229;41.820;23.490;2022-12-10T10:41:14;89358.78;;;14.41;66.67
10366;BME280;5229;41.820;23.490;2022-12-10T10:43:42;89349.84;;;14.42;66.50
10366;BME280;5229;41.820;23.490;2022-12-10T10:46:14;89354.81;;;14.47;66.39
10366;BME280;5229;41.820;23.490;2022-12-10T10:48:42;89357.16;;;14.52;66.58
10366;BME280;5229;41.820;23.490;2022-12-10T10:55:01;89359.63;;;14.45;66.76
10366;BME280;5229;41.820;23.490;2022-12-10T11:01:15;89362.06;;;14.38;66.36
10366;BME280;5229;41.820;23.490;2022-12-10T11:03:46;89349.81;;;14.39;66.54
10366;BME280;5229;41.820;23.490;2022-12-10T11:06:14;89361.69;;;14.36;66.72
10366;BME280;5229;41.820;23.490;2022-12-10T11:08:43;89365.34;;;14.35;66.66
10366;BME280;5229;41.820;23.490;2022-12-10T11:11:12;89352.25;;;14.32;66.47
10366;BME280;5229;41.820;23.490;2022-12-10T11:13:43;89349.66;;;14.32;66.80
10366;BME280;5229;41.820;23.490;2022-12-10T11:16:15;89350.06;;;14.34;66.63
10366;BME280;5229;41.820;23.490;2022-12-10T11:18:54;89341.41;;;14.30;66.53
10366;BME280;5229;41.820;23.490;2022-12-10T11:21:23;89339.56;;;14.30;66.59
10366;BME280;5229;41.820;23.490;2022-12-10T11:23:52;89330.22;;;14.29;66.74
10366;BME280;5229;41.820;23.490;2022-12-10T11:26:50;89322.66;;;14.24;66.63
10366;BME280;5229;41.820;23.490;2022-12-10T11:29:43;89324.94;;;14.26;66.68
10366;BME280;5229;41.820;23.490;2022-12-10T11:32:34;89327.97;;;14.28;67.03
10366;BME280;5229;41.820;23.490;2022-12-10T11:35:11;89336.28;;;14.33;66.63
10366;BME280;5229;41.820;23.490;2022-12-10T11:37:46;89326.56;;;14.34;66.79
10366;BME280;5229;41.820;23.490;2022-12-10T11:40:38;89315.31;;;14.30;66.85
10366;BME280;5229;41.820;23.490;2022-12-10T11:43:23;89328.69;;;14.28;66.80
10366;BME280;5229;41.820;23.490;2022-12-10T11:46:04;89313.38;;;14.27;66.52
10366;BME280;5229;41.820;23.490;2022-12-10T11:48:47;89311.88;;;14.26;66.76
10366;BME280;5229;41.820;23.490;2022-12-10T11:51:23;89299.66;;;14.30;66.70
10366;BME280;5229;41.820;23.490;2022-12-10T11:54:05;89295.22;;;14.30;66.62
10366;BME280;5229;41.820;23.490;2022-12-10T11:56:36;89298.94;;;14.29;66.73
10366;BME280;5229;41.820;23.490;2022-12-10T11:59:12;89290.78;;;14.31;66.64
10366;BME280;5229;41.820;23.490;2022-12-10T12:01:54;89288.06;;;14.27;66.58
10366;BME280;5229;41.820;23.490;2022-12-10T12:04:38;89292.13;;;14.25;67.11
10366;BME280;5229;41.820;23.490;2022-12-10T12:07:30;89284.19;;;14.21;66.98
10366;BME280;5229;41.820;23.490;2022-12-10T12:10:25;89280.41;;;14.19;66.88
10366;BME280;5229;41.820;23.490;2022-12-10T12:12:58;89294.31;;;14.23;67.27
10366;BME280;5229;41.820;23.490;2022-12-10T12:15:29;89292.34;;;14.20;66.72
10366;BME280;5229;41.820;23.490;2022-12-10T12:18:00;89274.81;;;14.17;66.61
10366;BME280;5229;41.820;23.490;2022-12-10T12:20:32;89276.94;;;14.11;66.75
10366;BME280;5229;41.820;23.490;2022-12-10T12:23:06;89286.84;;;14.06;66.95
10366;BME280;5229;41.820;23.490;2022-12-10T12:25:40;89272.31;;;14.05;66.62
10366;BME280;5229;41.820;23.490;2022-12-10T12:28:12;89267.78;;;14.02;67.14
10366;BME280;5229;41.820;23.490;2022-12-10T12:30:43;89258.72;;;13.96;67.05
10366;BME280;5229;41.820;23.490;2022-12-10T12:33:17;89262.34;;;13.91;67.15
10366;BME280;5229;41.820;23.490;2022-12-10T12:35:50;89265.28;;;13.90;67.37
10366;BME280;5229;41.820;23.490;2022-12-10T12:38:28;89265.13;;;13.83;67.47
10366;BME280;5229;41.820;23.490;2022-12-10T12:41:00;89262.09;;;13.81;67.66
10366;BME280;5229;41.820;23.490;2022-12-10T12:43:37;89263.22;;;13.80;67.79
10366;BME280;5229;41.820;23.490;2022-12-10T12:46:11;89266.66;;;13.84;67.64
10366;BME280;5229;41.820;23.490;2022-12-10T12:48:46;89259.25;;;13.86;67.42
10366;BME280;5229;41.820;23.490;2022-12-10T12:51:21;89257.75;;;13.85;67.41
10366;BME280;5229;41.820;23.490;2022-12-10T12:53:54;89251.78;;;13.84;67.54
10366;BME280;5229;41.820;23.490;2022-12-10T12:56:27;89246.63;;;13.88;67.51
10366;BME280;5229;41.820;23.490;2022-12-10T12:59:04;89249.66;;;13.90;67.44
10366;BME280;5229;41.820;23.490;2022-12-10T13:01:39;89237.38;;;13.90;67.14
10366;BME280;5229;41.820;23.490;2022-12-10T13:04:09;89239.28;;;13.93;67.58
10366;BME280;5229;41.820;23.490;2022-12-10T13:06:38;89245.00;;;13.99;67.44
10366;BME280;5229;41.820;23.490;2022-12-10T13:09:25;89230.13;;;13.99;67.51
10366;BME280;5229;41.820;23.490;2022-12-10T13:12:24;89245.84;;;14.03;67.44
10366;BME280;5229;41.820;23.490;2022-12-10T13:15:11;89243.97;;;14.03;67.26
10366;BME280;5229;41.820;23.490;2022-12-10T13:18:01;89235.00;;;14.01;67.15
10366;BME280;5229;41.820;23.490;2022-12-10T13:20:33;89227.59;;;14.03;67.21
10366;BME280;5229;41.820;23.490;2022-12-10T13:23:02;89230.53;;;14.01;67.23
10366;BME280;5229;41.820;23.490;2022-12-10T13:25:58;89236.78;;;13.97;67.55